Nambouwalu, Fiji
Current Conditions -  °F | °C
As of 6:00 AM on Saturday 25 Oct 2014 (Local Time) from NFNA Reporting Station
Rain Showers Rain Showers  
Wind Chill: 73°   Ceiling: 2000
Heat Index: 73°   Visibility: 25mi
Dew Point: 73°   Wind: 0mph
Humidity: 100%   Direction: NA
Pressure: 29.88"   Gusts: NA
Location:  16.99°S, 178.69°E
Report Text: NFNA 241800Z 00000KT 40KM -SHRA BKN020 BKN045 23/23 Q1012 RMKRR 0.2
Loading
Personal Weather Stations






























Interactive Weather Map New forecast layout! Learn more

10-Day Weather Forecast

Advertisements
Track Severe Weather on mobile